createdAt,value
2018-01-17T00:01:36.774Z,1.42
2018-01-17T00:04:06.610Z,1.40
2018-01-17T00:06:36.622Z,1.05
2018-01-17T00:09:06.651Z,1.55
2018-01-17T00:11:35.654Z,1.15
2018-01-17T00:14:05.423Z,0.98
2018-01-17T00:16:35.398Z,1.05
2018-01-17T00:19:05.207Z,1.17
2018-01-17T00:21:35.954Z,1.20
2018-01-17T00:24:14.474Z,1.10
2018-01-17T00:26:43.531Z,1.20
2018-01-17T00:29:13.578Z,0.85
2018-01-17T00:31:42.658Z,1.05
2018-01-17T00:34:15.454Z,1.10
2018-01-17T00:36:43.510Z,0.98
2018-01-17T00:39:16.021Z,1.20
2018-01-17T00:41:45.982Z,1.10
2018-01-17T00:44:16.794Z,1.40
2018-01-17T00:46:46.768Z,1.23
2018-01-17T00:49:14.766Z,1.12
2018-01-17T00:51:49.590Z,1.08
2018-01-17T00:54:22.026Z,1.00
2018-01-17T00:57:04.226Z,1.05
2018-01-17T00:59:40.294Z,1.52
2018-01-17T01:02:10.250Z,1.33
2018-01-17T01:04:41.278Z,1.35
2018-01-17T01:07:11.206Z,1.40
2018-01-17T01:09:47.894Z,1.45
2018-01-17T01:12:23.602Z,1.60
2018-01-17T01:14:56.178Z,1.00
2018-01-17T01:17:24.178Z,1.33
2018-01-17T01:19:56.706Z,1.50
2018-01-17T01:22:24.744Z,2.55
2018-01-17T01:24:52.810Z,1.75
2018-01-17T01:27:21.034Z,1.35
2018-01-17T01:29:49.189Z,1.10
2018-01-17T01:32:18.311Z,1.35
2018-01-17T01:34:47.530Z,1.52
2018-01-17T01:37:16.710Z,1.50
2018-01-17T01:39:44.810Z,1.58
2018-01-17T01:42:12.798Z,1.58
2018-01-17T01:44:40.798Z,1.60
2018-01-17T01:47:08.882Z,1.27
2018-01-17T01:49:37.886Z,1.30
2018-01-17T01:52:05.945Z,1.25
2018-01-17T01:54:34.930Z,1.70
2018-01-17T01:57:02.938Z,1.85
2018-01-17T01:59:31.914Z,2.05
2018-01-17T02:02:04.401Z,1.98
2018-01-17T02:04:36.541Z,1.67
2018-01-17T02:07:04.553Z,1.67
2018-01-17T02:09:34.534Z,1.77
2018-01-17T02:12:04.445Z,1.60
2018-01-17T02:14:37.914Z,2.17
2018-01-17T02:17:06.830Z,2.00
2018-01-17T02:19:36.842Z,2.00
2018-01-17T02:22:06.766Z,1.95
2018-01-17T02:24:34.854Z,1.80
2018-01-17T02:27:04.962Z,1.60
2018-01-17T02:29:44.565Z,1.95
2018-01-17T02:32:13.498Z,1.65
2018-01-17T02:34:42.482Z,1.90
2018-01-17T02:37:10.526Z,2.22
2018-01-17T02:39:51.269Z,2.50
2018-01-17T02:42:20.041Z,2.45
2018-01-17T02:44:52.064Z,2.80
2018-01-17T02:47:21.109Z,3.28
2018-01-17T02:49:51.815Z,3.50
2018-01-17T02:52:26.816Z,3.47
2018-01-17T02:54:54.882Z,2.80
2018-01-17T02:57:31.418Z,3.15
2018-01-17T03:00:02.086Z,2.60
2018-01-17T03:02:32.089Z,2.22
2018-01-17T03:05:00.998Z,2.45
2018-01-17T03:07:34.022Z,2.03
2018-01-17T03:10:06.985Z,1.75
2018-01-17T03:12:37.005Z,2.00
2018-01-17T03:15:05.014Z,1.48
2018-01-17T03:17:35.821Z,2.15
2018-01-17T03:20:05.813Z,1.90
2018-01-17T03:22:43.886Z,1.60
2018-01-17T03:25:11.893Z,1.30
2018-01-17T03:27:39.905Z,1.48
2018-01-17T03:30:07.906Z,1.48
2018-01-17T03:32:41.037Z,1.60
2018-01-17T03:35:13.657Z,1.95
2018-01-17T03:37:56.145Z,1.70
2018-01-17T03:40:27.933Z,1.30
2018-01-17T03:42:57.881Z,0.82
2018-01-17T03:45:28.217Z,1.60
2018-01-17T03:47:57.189Z,1.48
2018-01-17T03:50:35.590Z,1.33
2018-01-17T03:53:07.629Z,1.50
2018-01-17T03:55:35.906Z,1.20
2018-01-17T03:58:03.921Z,1.00
2018-01-17T04:00:37.909Z,1.30
2018-01-17T04:03:06.913Z,1.75
2018-01-17T04:05:45.517Z,1.60
2018-01-17T04:08:21.868Z,1.30
2018-01-17T04:10:52.949Z,1.50
2018-01-17T04:13:22.953Z,1.60
2018-01-17T04:15:58.184Z,1.80
2018-01-17T04:18:27.089Z,2.58
2018-01-17T04:20:58.133Z,1.73
2018-01-17T04:23:26.133Z,2.25
2018-01-17T04:25:56.821Z,1.87
2018-01-17T04:28:25.820Z,1.70
2018-01-17T04:30:57.573Z,6.25
2018-01-17T04:33:27.488Z,1.90
2018-01-17T04:35:55.496Z,1.67
2018-01-17T04:38:25.269Z,1.50
2018-01-17T04:41:06.729Z,2.00
2018-01-17T04:43:38.005Z,1.00
2018-01-17T04:46:06.009Z,1.23
2018-01-17T04:48:36.722Z,1.33
2018-01-17T04:51:04.732Z,1.45
2018-01-17T04:53:39.364Z,1.15
2018-01-17T04:56:07.375Z,1.35
2018-01-17T04:58:36.365Z,1.12
2018-01-17T05:01:12.080Z,1.50
2018-01-17T05:03:41.021Z,0.90
2018-01-17T05:06:12.033Z,0.95
2018-01-17T05:08:41.040Z,0.70
2018-01-17T05:11:15.420Z,0.70
2018-01-17T05:13:44.336Z,0.62
2018-01-17T05:16:13.325Z,0.70
2018-01-17T05:18:42.340Z,0.90
2018-01-17T05:21:24.865Z,0.65
2018-01-17T05:23:53.820Z,1.00
2018-01-17T05:26:28.208Z,0.88
2018-01-17T05:29:02.920Z,0.90
2018-01-17T05:31:35.240Z,1.00
2018-01-17T05:34:06.940Z,1.30
2018-01-17T05:36:37.616Z,1.00
2018-01-17T05:39:07.568Z,1.37
2018-01-17T05:41:37.552Z,1.20
2018-01-17T05:44:17.997Z,0.85
2018-01-17T05:46:52.816Z,1.40
2018-01-17T05:49:24.964Z,1.20
2018-01-17T05:51:54.932Z,1.25
2018-01-17T05:54:33.641Z,1.30
2018-01-17T05:57:05.629Z,1.10
2018-01-17T05:59:37.600Z,1.52
2018-01-17T06:02:07.580Z,1.42
2018-01-17T06:04:36.484Z,1.40
2018-01-17T06:07:06.484Z,1.48
2018-01-17T06:09:52.032Z,1.40
2018-01-17T06:12:23.320Z,1.50
2018-01-17T06:15:03.652Z,1.98
2018-01-17T06:17:45.032Z,2.10
2018-01-17T06:20:16.616Z,1.87
2018-01-17T06:22:45.628Z,1.83
2018-01-17T06:25:18.180Z,1.37
2018-01-17T06:30:41.048Z,2.00
2018-01-17T06:33:09.088Z,2.00
2018-01-17T06:35:38.008Z,2.10
2018-01-17T06:38:07.928Z,1.80
2018-01-17T06:40:42.840Z,1.80
2018-01-17T06:43:29.860Z,1.70
2018-01-17T06:46:04.488Z,2.00
2018-01-17T06:48:36.672Z,1.85
2018-01-17T06:51:04.713Z,2.30
2018-01-17T06:53:34.640Z,2.25
2018-01-17T06:56:03.636Z,2.30
2018-01-17T06:58:38.364Z,2.03
2018-01-17T07:01:09.289Z,2.08
2018-01-17T07:03:37.295Z,1.65
2018-01-17T07:06:09.124Z,1.80
2018-01-17T07:08:46.913Z,1.75
2018-01-17T07:11:21.524Z,1.60
2018-01-17T07:13:49.628Z,1.87
2018-01-17T07:16:18.616Z,1.70
2018-01-17T07:18:47.601Z,2.10
2018-01-17T07:21:15.596Z,2.42
2018-01-17T07:23:43.600Z,1.90
2018-01-17T07:26:19.376Z,1.92
2018-01-17T07:28:51.876Z,2.50
2018-01-17T07:31:19.916Z,2.45
2018-01-17T07:33:47.921Z,2.17
2018-01-17T07:36:21.704Z,2.75
2018-01-17T07:39:02.660Z,2.50
2018-01-17T07:41:36.004Z,2.30
2018-01-17T07:44:04.011Z,2.30
2018-01-17T07:46:43.476Z,2.83
2018-01-17T07:49:11.475Z,2.03
2018-01-17T07:51:40.460Z,2.30
2018-01-17T07:54:09.012Z,1.90
2018-01-17T07:56:50.756Z,2.55
2018-01-17T07:59:21.492Z,1.08
2018-01-17T08:01:53.819Z,1.20
2018-01-17T08:04:21.828Z,0.90
2018-01-17T08:07:07.732Z,1.40
2018-01-17T08:09:44.840Z,1.60
2018-01-17T08:12:14.844Z,1.00
2018-01-17T08:14:42.860Z,1.08
2018-01-17T08:17:14.196Z,0.95
2018-01-17T08:19:42.196Z,1.23
2018-01-17T08:22:15.851Z,1.10
2018-01-17T08:24:43.900Z,0.90
2018-01-17T08:27:11.896Z,1.40
2018-01-17T08:29:41.816Z,1.40
2018-01-17T08:32:13.796Z,1.98
2018-01-17T08:34:42.776Z,1.12
2018-01-17T08:37:11.767Z,2.20
2018-01-17T08:39:44.555Z,1.58
2018-01-17T08:42:16.116Z,1.15
2018-01-17T08:44:49.848Z,2.12
2018-01-17T08:47:18.658Z,1.60
2018-01-17T08:49:47.552Z,1.40
2018-01-17T08:52:17.460Z,1.20
2018-01-17T08:54:46.359Z,1.10
2018-01-17T08:57:14.355Z,0.90
2018-01-17T08:59:43.340Z,1.25
2018-01-17T09:02:11.348Z,1.15
2018-01-17T09:04:40.310Z,1.58
2018-01-17T09:07:09.083Z,2.60
2018-01-17T09:09:37.090Z,1.45
2018-01-17T09:12:08.203Z,1.40
2018-01-17T09:14:38.232Z,1.80
2018-01-17T09:17:06.239Z,1.40
2018-01-17T09:19:35.008Z,1.00
2018-01-17T09:22:07.064Z,0.50
2018-01-17T09:24:48.772Z,0.93
2018-01-17T09:27:18.540Z,0.70
2018-01-17T09:29:46.543Z,0.50
2018-01-17T09:32:20.944Z,1.10
2018-01-17T09:35:07.767Z,0.60
2018-01-17T09:37:35.887Z,1.10
2018-01-17T09:40:03.937Z,1.10
2018-01-17T09:42:31.907Z,1.00
2018-01-17T09:45:06.388Z,1.15
2018-01-17T09:47:34.415Z,1.55
2018-01-17T09:50:08.232Z,1.30
2018-01-17T09:52:36.523Z,1.40
2018-01-17T09:55:05.523Z,1.52
2018-01-17T09:57:48.719Z,1.20
2018-01-17T10:00:21.323Z,1.23
2018-01-17T10:02:51.359Z,1.42
2018-01-17T10:05:23.096Z,2.10
2018-01-17T10:07:51.126Z,1.55
2018-01-17T10:10:21.091Z,1.40
2018-01-17T10:12:50.135Z,1.23
2018-01-17T10:15:18.139Z,1.90
2018-01-17T10:17:46.144Z,2.28
2018-01-17T10:20:23.603Z,1.30
2018-01-17T10:22:51.607Z,1.40
2018-01-17T10:25:21.391Z,0.82
2018-01-17T10:27:50.289Z,1.60
2018-01-17T10:30:20.931Z,2.12
2018-01-17T10:32:49.910Z,1.48
2018-01-17T10:35:18.795Z,1.02
2018-01-17T10:37:46.805Z,0.98
2018-01-17T10:40:16.491Z,1.27
2018-01-17T10:42:48.330Z,1.25
2018-01-17T10:45:24.042Z,1.98
2018-01-17T10:47:55.151Z,2.60
2018-01-17T10:50:23.923Z,1.12
2018-01-17T10:52:56.824Z,1.12
2018-01-17T10:55:26.676Z,1.30
2018-01-17T10:57:54.671Z,1.92
2018-01-17T11:00:22.703Z,1.62
2018-01-17T11:02:52.635Z,1.10
2018-01-17T11:05:21.647Z,1.90
2018-01-17T11:07:52.895Z,0.95
2018-01-17T11:10:23.547Z,1.25
2018-01-17T11:12:53.571Z,1.27
2018-01-17T11:15:21.571Z,1.20
2018-01-17T11:17:56.739Z,1.75
2018-01-17T11:20:28.262Z,1.42
2018-01-17T11:22:56.299Z,1.30
2018-01-17T11:25:25.067Z,1.33
2018-01-17T11:27:53.972Z,1.40
2018-01-17T11:30:22.879Z,1.20
2018-01-17T11:32:52.635Z,1.48
2018-01-17T11:35:20.679Z,1.58
2018-01-17T11:37:48.677Z,1.58
2018-01-17T11:40:16.683Z,1.50
2018-01-17T11:42:44.722Z,1.65
2018-01-17T11:45:12.742Z,1.70
2018-01-17T11:47:41.507Z,1.25
2018-01-17T11:50:18.011Z,1.20
2018-01-17T11:52:46.955Z,1.33
2018-01-17T11:55:15.843Z,1.58
2018-01-17T11:57:46.982Z,1.67
2018-01-17T12:00:14.983Z,1.25
2018-01-17T12:02:43.750Z,1.10
2018-01-17T12:05:12.726Z,1.75
2018-01-17T12:07:43.038Z,1.10
2018-01-17T12:10:11.043Z,1.10
2018-01-17T12:12:39.823Z,1.60
2018-01-17T12:15:07.854Z,2.05
2018-01-17T12:17:35.862Z,1.55
2018-01-17T12:20:03.858Z,1.55
2018-01-17T12:22:32.786Z,1.80
2018-01-17T12:25:00.802Z,1.52
2018-01-17T12:27:30.478Z,1.67
2018-01-17T12:30:01.804Z,1.23
2018-01-17T12:32:30.818Z,1.30
2018-01-17T12:34:58.822Z,1.33
2018-01-17T12:37:26.820Z,0.80
2018-01-17T12:39:54.839Z,1.15
2018-01-17T12:42:23.798Z,1.70
2018-01-17T12:44:52.794Z,1.48
2018-01-17T12:47:20.806Z,1.17
2018-01-17T12:49:49.762Z,1.80
2018-01-17T12:52:20.038Z,1.70
2018-01-17T12:54:48.806Z,1.60
2018-01-17T12:57:17.582Z,1.77
2018-01-17T12:59:45.602Z,1.55
2018-01-17T13:02:13.606Z,1.30
2018-01-17T13:04:45.362Z,1.83
2018-01-17T13:07:17.250Z,1.20
2018-01-17T13:09:46.050Z,1.10
2018-01-17T13:12:16.882Z,1.35
2018-01-17T13:14:44.902Z,1.33
2018-01-17T13:17:12.902Z,1.35
2018-01-17T13:19:40.898Z,1.60
2018-01-17T13:22:08.910Z,1.40
2018-01-17T13:24:37.258Z,1.23
2018-01-17T13:27:05.258Z,1.60
2018-01-17T13:29:34.241Z,1.20
2018-01-17T13:32:03.227Z,1.37
2018-01-17T13:34:31.222Z,1.60
2018-01-17T13:37:01.226Z,1.65
2018-01-17T13:39:29.230Z,1.45
2018-01-17T13:41:59.919Z,1.70
2018-01-17T13:44:27.914Z,1.20
2018-01-17T13:46:55.918Z,1.75
2018-01-17T13:49:24.866Z,1.55
2018-01-17T13:51:52.874Z,1.35
2018-01-17T13:54:27.171Z,1.80
2018-01-17T13:57:02.138Z,1.37
2018-01-17T13:59:31.065Z,1.45
2018-01-17T14:02:09.751Z,7.43
2018-01-17T14:04:43.745Z,1.73
2018-01-17T14:07:23.314Z,1.85
2018-01-17T14:09:52.330Z,2.92
2018-01-17T14:12:21.235Z,1.85
2018-01-17T14:14:52.674Z,1.80
2018-01-17T14:17:22.690Z,1.90
2018-01-17T14:19:51.581Z,1.70
2018-01-17T14:22:19.587Z,2.12
2018-01-17T14:25:08.902Z,1.60
2018-01-17T14:27:38.814Z,2.72
2018-01-17T14:30:10.578Z,1.65
2018-01-17T14:32:40.486Z,1.75
2018-01-17T14:35:09.381Z,1.50
2018-01-17T14:37:37.405Z,2.40
2018-01-17T14:40:06.329Z,1.62
2018-01-17T14:42:34.325Z,1.60
2018-01-17T14:45:02.329Z,2.60
2018-01-17T14:47:33.001Z,1.87
2018-01-17T14:50:02.926Z,1.50
2018-01-17T14:52:32.969Z,2.42
2018-01-17T14:55:04.189Z,2.22
2018-01-17T14:57:42.890Z,1.40
2018-01-17T15:00:20.689Z,1.08
2018-01-17T15:02:54.510Z,2.87
2018-01-17T15:05:22.505Z,1.83
2018-01-17T15:08:09.550Z,2.25
2018-01-17T15:10:58.009Z,2.22
2018-01-17T15:13:27.965Z,2.20
2018-01-17T15:15:59.617Z,3.10
2018-01-17T15:18:33.485Z,3.37
2018-01-17T15:21:04.765Z,2.15
2018-01-17T15:23:32.777Z,1.95
2018-01-17T15:26:06.742Z,2.00
2018-01-17T15:28:34.753Z,2.00
2018-01-17T15:31:07.653Z,2.12
2018-01-17T15:33:35.689Z,2.85
2018-01-17T15:36:07.110Z,3.22
2018-01-17T15:38:35.125Z,2.35
2018-01-17T15:41:12.277Z,1.92
2018-01-17T15:43:40.289Z,2.10
2018-01-17T15:46:10.053Z,2.90
2018-01-17T15:48:44.857Z,5.60
2018-01-17T15:51:13.873Z,2.92
2018-01-17T15:53:55.008Z,1.80
2018-01-17T15:56:24.901Z,1.98
2018-01-17T15:58:55.632Z,3.92
2018-01-17T16:01:30.905Z,2.90
2018-01-17T16:04:03.026Z,2.30
2018-01-17T16:06:31.079Z,2.25
2018-01-17T16:09:10.385Z,2.78
2018-01-17T16:11:38.389Z,2.60
2018-01-17T16:14:11.061Z,3.12
2018-01-17T16:16:39.081Z,2.50
2018-01-17T16:19:13.773Z,2.90
2018-01-17T16:21:54.277Z,3.03
2018-01-17T16:24:24.233Z,3.15
2018-01-17T16:26:54.237Z,2.47
2018-01-17T16:29:25.513Z,2.60
2018-01-17T16:31:55.501Z,3.15
2018-01-17T16:34:23.501Z,2.95
2018-01-17T16:36:55.937Z,2.70
2018-01-17T16:39:25.861Z,4.10
2018-01-17T16:41:54.857Z,3.78
2018-01-17T16:44:24.890Z,4.40
2018-01-17T16:46:52.888Z,2.15
2018-01-17T16:49:27.172Z,3.35
2018-01-17T16:51:55.177Z,3.97
2018-01-17T16:54:26.867Z,3.47
2018-01-17T16:56:55.869Z,4.50
2018-01-17T16:59:24.872Z,3.85
2018-01-17T17:01:56.325Z,3.85
2018-01-17T17:04:31.701Z,3.20
2018-01-17T17:07:01.465Z,4.60
2018-01-17T17:09:35.569Z,4.15
2018-01-17T17:12:03.580Z,4.45
2018-01-17T17:14:32.374Z,4.32
2018-01-17T17:17:01.137Z,2.92
2018-01-17T17:19:29.553Z,4.35
2018-01-17T17:21:59.708Z,4.40
2018-01-17T17:24:27.705Z,4.45
2018-01-17T17:26:56.717Z,2.75
2018-01-17T17:29:25.669Z,3.45
2018-01-17T17:31:57.013Z,2.58
2018-01-17T17:34:26.941Z,2.90
2018-01-17T17:36:58.372Z,3.35
2018-01-17T17:39:30.045Z,4.82
2018-01-17T17:41:58.940Z,4.00
2018-01-17T17:44:31.664Z,3.62
2018-01-17T17:47:04.393Z,5.15
2018-01-17T17:49:34.409Z,8.07
2018-01-17T17:52:03.389Z,5.75
2018-01-17T17:54:31.388Z,5.12
2018-01-17T17:57:00.380Z,5.05
2018-01-17T17:59:32.725Z,5.40
2018-01-17T18:02:01.712Z,5.15
2018-01-17T18:04:33.517Z,7.43
2018-01-17T18:07:04.212Z,4.82
2018-01-17T18:09:43.456Z,4.60
2018-01-17T18:12:12.580Z,4.25
2018-01-17T18:14:47.180Z,4.82
2018-01-17T18:17:22.088Z,2.95
2018-01-17T18:19:55.776Z,3.80
2018-01-17T18:22:28.816Z,4.10
2018-01-17T18:24:57.776Z,4.32
2018-01-17T18:27:31.624Z,4.95
2018-01-17T18:30:02.308Z,5.12
2018-01-17T18:32:35.312Z,6.15
2018-01-17T18:35:03.320Z,5.07
2018-01-17T18:37:31.332Z,4.12
2018-01-17T18:40:00.884Z,5.45
2018-01-17T18:42:28.888Z,7.05
2018-01-17T18:44:57.964Z,3.70
2018-01-17T18:47:28.640Z,4.32
2018-01-17T18:50:08.796Z,3.80
2018-01-17T18:52:38.882Z,4.25
2018-01-17T18:55:07.796Z,4.12
2018-01-17T18:57:36.696Z,2.80
2018-01-17T19:00:04.710Z,2.80
2018-01-17T19:02:35.496Z,2.92
2018-01-17T19:05:03.496Z,3.33
2018-01-17T19:07:32.272Z,2.55
2018-01-17T19:10:00.288Z,3.12
2018-01-17T19:12:30.252Z,4.00
2018-01-17T19:14:58.264Z,2.35
2018-01-17T19:17:27.028Z,3.28
2018-01-17T19:19:56.800Z,4.00
2018-01-17T19:22:25.576Z,3.33
2018-01-17T19:24:59.486Z,2.90
2018-01-17T19:27:29.429Z,4.00
2018-01-17T19:30:01.672Z,3.05
2018-01-17T19:32:30.678Z,4.65
2018-01-17T19:34:58.688Z,3.50
2018-01-17T19:37:27.464Z,4.60
2018-01-17T19:39:59.380Z,5.25
2018-01-17T19:42:28.368Z,4.10
2018-01-17T19:45:11.752Z,5.05
2018-01-17T19:47:42.612Z,6.50
2018-01-17T19:50:10.628Z,5.18
2018-01-17T19:52:39.623Z,5.57
2018-01-17T19:55:09.620Z,4.47
2018-01-17T19:57:38.609Z,3.10
2018-01-17T20:00:07.600Z,4.72
2018-01-17T20:02:41.484Z,4.30
2018-01-17T20:05:10.511Z,12.63
2018-01-17T20:07:42.675Z,7.22
2018-01-17T20:10:11.287Z,5.40
2018-01-17T20:12:39.291Z,8.10
2018-01-17T20:15:07.292Z,6.28
2018-01-17T20:17:38.224Z,6.93
2018-01-17T20:20:11.543Z,5.78
2018-01-17T20:22:45.272Z,5.30
2018-01-17T20:25:14.052Z,3.87
2018-01-17T20:27:42.056Z,4.10
2018-01-17T20:30:11.991Z,4.90
2018-01-17T20:32:44.212Z,4.25
2018-01-17T20:35:12.223Z,6.20
2018-01-17T20:37:42.136Z,4.05
2018-01-17T20:40:11.157Z,5.62
2018-01-17T20:42:39.156Z,5.35
2018-01-17T20:45:08.924Z,5.72
2018-01-17T20:47:38.948Z,4.35
2018-01-17T20:50:12.264Z,5.97
2018-01-17T20:52:41.172Z,4.25
2018-01-17T20:55:09.175Z,6.12
2018-01-17T20:57:40.863Z,5.55
2018-01-17T21:00:12.719Z,5.12
2018-01-17T21:02:41.619Z,3.45
2018-01-17T21:05:13.355Z,4.10
2018-01-17T21:07:41.411Z,4.03
2018-01-17T21:10:10.180Z,2.53
2018-01-17T21:12:38.195Z,3.97
2018-01-17T21:15:12.015Z,3.45
2018-01-17T21:17:40.047Z,2.78
2018-01-17T21:20:09.971Z,3.30
2018-01-17T21:22:41.635Z,3.83
2018-01-17T21:25:10.463Z,3.90
2018-01-17T21:27:39.291Z,4.80
2018-01-17T21:30:09.991Z,4.20
2018-01-17T21:32:39.955Z,3.28
2018-01-17T21:35:08.939Z,4.90
2018-01-17T21:37:37.955Z,6.53
2018-01-17T21:40:08.031Z,4.28
2018-01-17T21:42:42.815Z,7.50
2018-01-17T21:45:18.235Z,4.03
2018-01-17T21:47:53.023Z,4.00
2018-01-17T21:50:26.395Z,2.95
2018-01-17T21:52:56.151Z,4.35
2018-01-17T21:55:24.155Z,4.43
2018-01-17T21:58:05.099Z,2.90
2018-01-17T22:00:42.611Z,4.18
2018-01-17T22:03:13.327Z,3.30
2018-01-17T22:05:43.331Z,4.12
2018-01-17T22:08:12.355Z,3.97
2018-01-17T22:10:40.367Z,3.92
2018-01-17T22:13:12.883Z,3.95
2018-01-17T22:15:44.799Z,4.70
2018-01-17T22:18:12.799Z,5.37
2018-01-17T22:20:46.325Z,3.47
2018-01-17T22:23:14.415Z,4.00
2018-01-17T22:25:49.507Z,4.95
2018-01-17T22:28:22.543Z,3.65
2018-01-17T22:30:53.265Z,3.58
2018-01-17T22:33:23.271Z,3.67
2018-01-17T22:35:52.951Z,3.20
2018-01-17T22:38:20.983Z,2.50
2018-01-17T22:40:50.903Z,3.45
2018-01-17T22:43:18.907Z,3.17
2018-01-17T22:45:47.815Z,3.35
2018-01-17T22:48:18.675Z,3.70
2018-01-17T22:50:47.643Z,3.55
2018-01-17T22:53:17.658Z,3.42
2018-01-17T22:55:47.678Z,4.10
2018-01-17T22:58:28.019Z,3.05
2018-01-17T23:01:01.759Z,2.35
2018-01-17T23:03:30.535Z,5.70
2018-01-17T23:06:00.531Z,3.30
2018-01-17T23:08:29.520Z,4.10
2018-01-17T23:10:58.507Z,3.35
2018-01-17T23:13:26.616Z,3.45
2018-01-17T23:15:54.622Z,3.17
2018-01-17T23:18:23.554Z,4.00
2018-01-17T23:20:54.674Z,3.78
2018-01-17T23:23:23.674Z,3.92
2018-01-17T23:25:51.694Z,2.90
2018-01-17T23:28:20.478Z,3.20
2018-01-17T23:30:57.174Z,2.67
2018-01-17T23:33:27.122Z,3.03
2018-01-17T23:35:56.131Z,3.58
2018-01-17T23:38:24.154Z,2.40
2018-01-17T23:40:52.186Z,3.92
2018-01-17T23:43:27.898Z,3.03
2018-01-17T23:45:56.902Z,2.65
2018-01-17T23:48:24.922Z,4.28
2018-01-17T23:50:55.907Z,2.85
2018-01-17T23:53:25.735Z,3.20
2018-01-17T23:55:54.726Z,3.17
2018-01-17T23:58:22.758Z,3.20
